createdAt,value
2023-03-15T00:00:35.768Z,1.80
2023-03-15T00:03:04.656Z,1.80
2023-03-15T00:05:32.008Z,1.80
2023-03-15T00:07:59.206Z,1.80
2023-03-15T00:10:25.980Z,1.80
2023-03-15T00:12:52.808Z,1.70
2023-03-15T00:15:19.662Z,1.80
2023-03-15T00:17:46.481Z,1.80
2023-03-15T00:20:18.840Z,1.70
2023-03-15T00:22:45.855Z,1.70
2023-03-15T00:25:12.664Z,1.70
2023-03-15T00:27:39.562Z,1.70
2023-03-15T00:30:06.972Z,1.70
2023-03-15T00:32:33.878Z,1.70
2023-03-15T00:35:02.811Z,1.70
2023-03-15T00:37:31.362Z,1.70
2023-03-15T00:40:00.266Z,1.70
2023-03-15T00:42:28.892Z,1.70
2023-03-15T00:44:55.956Z,1.60
2023-03-15T00:47:23.204Z,1.60
2023-03-15T00:49:50.802Z,1.60
2023-03-15T00:52:18.841Z,1.60
2023-03-15T00:54:55.559Z,1.60
2023-03-15T00:57:22.798Z,1.50
2023-03-15T00:59:49.655Z,1.50
2023-03-15T01:02:16.516Z,1.50
2023-03-15T01:04:44.749Z,1.40
2023-03-15T01:07:12.158Z,1.40
2023-03-15T01:09:38.996Z,1.40
2023-03-15T01:12:06.073Z,1.30
2023-03-15T01:14:35.325Z,1.30
2023-03-15T01:17:02.388Z,1.30
2023-03-15T01:19:29.316Z,1.30
2023-03-15T01:21:56.111Z,1.30
2023-03-15T01:24:23.008Z,1.30
2023-03-15T01:26:50.536Z,1.40
2023-03-15T01:29:17.949Z,1.30
2023-03-15T01:31:44.873Z,1.30
2023-03-15T01:34:11.671Z,1.30
2023-03-15T01:36:38.549Z,1.30
2023-03-15T01:39:05.358Z,1.30
2023-03-15T01:41:41.300Z,1.40
2023-03-15T01:44:14.819Z,1.30
2023-03-15T01:46:42.212Z,1.40
2023-03-15T01:49:33.281Z,1.30
2023-03-15T01:52:13.024Z,1.30
2023-03-15T01:55:05.002Z,1.30
2023-03-15T01:57:41.203Z,1.30
2023-03-15T02:00:15.377Z,1.30
2023-03-15T02:03:04.070Z,1.30
2023-03-15T02:05:39.679Z,1.30
2023-03-15T02:08:09.097Z,1.30
2023-03-15T02:10:43.410Z,1.20
2023-03-15T02:13:15.323Z,1.20
2023-03-15T02:15:46.567Z,1.20
2023-03-15T02:18:20.078Z,1.20
2023-03-15T02:21:00.362Z,1.20
2023-03-15T02:23:28.057Z,1.20
2023-03-15T02:28:53.767Z,1.20
2023-03-15T02:31:21.848Z,1.20
2023-03-15T02:33:55.489Z,1.20
2023-03-15T02:36:25.344Z,1.20
2023-03-15T02:38:53.621Z,1.20
2023-03-15T02:41:57.563Z,1.30
2023-03-15T02:44:32.468Z,1.30
2023-03-15T02:47:12.792Z,1.30
2023-03-15T02:49:44.459Z,1.20
2023-03-15T02:52:13.836Z,1.20
2023-03-15T02:54:43.466Z,1.20
2023-03-15T02:57:11.640Z,1.20
2023-03-15T02:59:38.485Z,1.30
2023-03-15T03:02:05.815Z,1.30
2023-03-15T03:04:34.326Z,1.30
2023-03-15T03:07:01.498Z,1.30
2023-03-15T03:09:37.958Z,1.30
2023-03-15T03:12:05.443Z,1.30
2023-03-15T03:14:33.311Z,1.30
2023-03-15T03:17:01.525Z,1.30
2023-03-15T03:19:28.444Z,1.30
2023-03-15T03:21:56.714Z,1.40
2023-03-15T03:24:25.723Z,1.40
2023-03-15T03:26:57.796Z,1.40
2023-03-15T03:29:28.776Z,1.40
2023-03-15T03:31:58.816Z,1.40
2023-03-15T03:34:26.024Z,1.40
2023-03-15T03:36:52.959Z,1.50
2023-03-15T03:39:31.638Z,1.40
2023-03-15T03:42:01.416Z,1.40
2023-03-15T03:44:28.860Z,1.50
2023-03-15T03:46:55.674Z,1.40
2023-03-15T03:49:22.489Z,1.50
2023-03-15T03:51:49.595Z,1.50
2023-03-15T03:54:17.835Z,1.50
2023-03-15T03:56:44.773Z,1.50
2023-03-15T03:59:11.656Z,1.40
2023-03-15T04:01:54.677Z,1.40
2023-03-15T04:04:21.837Z,1.40
2023-03-15T04:06:50.710Z,1.40
2023-03-15T04:09:24.939Z,1.40
2023-03-15T04:11:53.340Z,1.40
2023-03-15T04:14:20.623Z,1.40
2023-03-15T04:16:49.316Z,1.30
2023-03-15T04:19:18.145Z,1.30
2023-03-15T04:21:47.248Z,1.30
2023-03-15T04:24:26.688Z,1.30
2023-03-15T04:27:19.932Z,1.30
2023-03-15T04:30:05.177Z,1.30
2023-03-15T04:32:39.974Z,1.30
2023-03-15T04:35:15.703Z,1.30
2023-03-15T04:37:52.233Z,1.30
2023-03-15T04:40:39.318Z,1.20
2023-03-15T04:43:18.020Z,1.30
2023-03-15T04:46:04.960Z,1.30
2023-03-15T04:48:52.015Z,1.30
2023-03-15T04:51:41.675Z,1.30
2023-03-15T04:54:27.412Z,1.30
2023-03-15T04:57:14.510Z,1.30
2023-03-15T04:59:41.402Z,1.40
2023-03-15T05:02:43.715Z,1.40
2023-03-15T05:05:32.969Z,1.40
2023-03-15T05:08:22.637Z,1.40
2023-03-15T05:11:22.097Z,1.40
2023-03-15T05:14:09.175Z,1.40
2023-03-15T05:16:53.949Z,1.40
2023-03-15T05:19:42.430Z,1.40
2023-03-15T05:22:28.336Z,1.40
2023-03-15T05:25:13.847Z,1.40
2023-03-15T05:27:59.338Z,1.40
2023-03-15T05:31:02.807Z,1.50
2023-03-15T05:33:48.398Z,1.40
2023-03-15T05:36:41.846Z,1.50
2023-03-15T05:39:27.200Z,1.50
2023-03-15T05:42:11.913Z,1.50
2023-03-15T05:45:05.629Z,1.40
2023-03-15T05:48:07.784Z,1.50
2023-03-15T05:50:54.967Z,1.50
2023-03-15T05:53:40.281Z,1.50
2023-03-15T05:56:29.507Z,1.50
2023-03-15T05:59:15.201Z,1.50
2023-03-15T06:01:50.954Z,1.50
2023-03-15T06:04:26.757Z,1.50
2023-03-15T06:06:55.825Z,1.50
2023-03-15T06:09:22.704Z,1.40
2023-03-15T06:11:49.629Z,1.50
2023-03-15T06:14:16.762Z,1.50
2023-03-15T06:16:52.292Z,1.50
2023-03-15T06:19:19.896Z,1.50
2023-03-15T06:21:47.067Z,1.50
2023-03-15T06:24:29.715Z,1.50
2023-03-15T06:26:56.513Z,1.50
2023-03-15T06:29:23.759Z,1.50
2023-03-15T06:31:53.568Z,1.50
2023-03-15T06:34:21.199Z,1.50
2023-03-15T06:36:52.593Z,1.50
2023-03-15T06:39:20.032Z,1.60
2023-03-15T06:41:46.859Z,1.50
2023-03-15T06:44:20.268Z,1.50
2023-03-15T06:46:51.005Z,1.50
2023-03-15T06:49:18.174Z,1.50
2023-03-15T06:51:45.682Z,1.50
2023-03-15T06:54:12.716Z,1.50
2023-03-15T06:56:39.779Z,1.40
2023-03-15T06:59:07.422Z,1.40
2023-03-15T07:01:34.348Z,1.40
2023-03-15T07:04:01.217Z,1.40
2023-03-15T07:06:29.212Z,1.40
2023-03-15T07:08:56.075Z,1.40
2023-03-15T07:11:22.987Z,1.40
2023-03-15T07:13:50.378Z,1.40
2023-03-15T07:16:17.265Z,1.40
2023-03-15T07:18:44.193Z,1.40
2023-03-15T07:21:11.073Z,1.40
2023-03-15T07:23:38.001Z,1.40
2023-03-15T07:26:05.001Z,1.40
2023-03-15T07:28:31.806Z,1.50
2023-03-15T07:31:01.634Z,1.50
2023-03-15T07:33:31.003Z,1.50
2023-03-15T07:35:58.226Z,1.50
2023-03-15T07:38:28.906Z,1.60
2023-03-15T07:40:56.695Z,1.50
2023-03-15T07:43:24.526Z,1.50
2023-03-15T07:46:01.410Z,1.50
2023-03-15T07:48:29.457Z,1.50
2023-03-15T07:50:56.861Z,1.50
2023-03-15T07:53:23.726Z,1.50
2023-03-15T07:55:50.711Z,1.50
2023-03-15T07:58:20.205Z,1.50
2023-03-15T08:00:47.533Z,1.50
2023-03-15T08:03:14.485Z,1.50
2023-03-15T08:05:41.388Z,1.50
2023-03-15T08:08:08.248Z,1.50
2023-03-15T08:10:35.363Z,1.50
2023-03-15T08:13:02.198Z,1.50
2023-03-15T08:15:29.295Z,1.50
2023-03-15T08:17:56.087Z,1.40
2023-03-15T08:20:22.954Z,1.40
2023-03-15T08:22:51.312Z,1.40
2023-03-15T08:25:21.096Z,1.40
2023-03-15T08:27:48.670Z,1.40
2023-03-15T08:30:17.032Z,1.40
2023-03-15T08:32:45.934Z,1.30
2023-03-15T08:35:16.006Z,1.30
2023-03-15T08:37:47.693Z,1.30
2023-03-15T08:40:25.036Z,1.30
2023-03-15T08:42:52.984Z,1.40
2023-03-15T08:45:20.466Z,1.40
2023-03-15T08:47:47.340Z,1.40
2023-03-15T08:50:16.086Z,1.40
2023-03-15T08:52:43.646Z,1.40
2023-03-15T08:55:14.243Z,1.50
2023-03-15T08:57:41.708Z,1.50
2023-03-15T09:00:09.795Z,1.50
2023-03-15T09:02:37.368Z,1.60
2023-03-15T09:05:07.193Z,1.60
2023-03-15T09:07:34.447Z,1.70
2023-03-15T09:10:02.970Z,1.70
2023-03-15T09:12:31.746Z,1.70
2023-03-15T09:14:58.542Z,1.70
2023-03-15T09:17:25.375Z,1.70
2023-03-15T09:19:52.479Z,1.70
2023-03-15T09:22:34.858Z,1.80
2023-03-15T09:25:05.728Z,1.70
2023-03-15T09:27:32.705Z,1.70
2023-03-15T09:29:59.615Z,1.70
2023-03-15T09:32:26.748Z,1.80
2023-03-15T09:34:53.863Z,1.80
2023-03-15T09:37:21.864Z,1.90
2023-03-15T09:39:48.814Z,1.90
2023-03-15T09:42:54.345Z,1.90
2023-03-15T09:45:28.239Z,2.00
2023-03-15T09:48:18.826Z,2.00
2023-03-15T09:50:54.377Z,2.10
2023-03-15T09:53:31.942Z,2.10
2023-03-15T09:55:59.629Z,2.00
2023-03-15T09:58:34.703Z,2.10
2023-03-15T10:01:13.966Z,2.20
2023-03-15T10:03:53.048Z,2.20
2023-03-15T10:06:23.649Z,2.20
2023-03-15T10:08:54.981Z,2.20
2023-03-15T10:11:53.646Z,2.20
2023-03-15T10:14:40.863Z,2.30
2023-03-15T10:17:12.873Z,2.40
2023-03-15T10:19:48.772Z,2.40
2023-03-15T10:22:39.796Z,2.40
2023-03-15T10:25:26.037Z,2.50
2023-03-15T10:28:01.339Z,2.50
2023-03-15T10:30:33.820Z,2.60
2023-03-15T10:33:03.947Z,2.60
2023-03-15T10:35:32.101Z,2.60
2023-03-15T10:37:59.139Z,2.60
2023-03-15T10:40:47.021Z,2.60
2023-03-15T10:43:24.428Z,2.60
2023-03-15T10:46:13.880Z,2.60
2023-03-15T10:48:58.368Z,2.60
2023-03-15T10:51:31.420Z,2.60
2023-03-15T10:54:07.016Z,2.60
2023-03-15T10:56:45.453Z,2.70
2023-03-15T10:59:20.886Z,2.70
2023-03-15T11:01:54.039Z,2.70
2023-03-15T11:04:32.498Z,2.80
2023-03-15T11:07:03.727Z,2.80
2023-03-15T11:09:45.720Z,2.80
2023-03-15T11:12:33.697Z,2.80
2023-03-15T11:15:14.044Z,2.80
2023-03-15T11:17:47.764Z,2.80
2023-03-15T11:20:40.816Z,2.90
2023-03-15T11:23:25.554Z,2.90
2023-03-15T11:25:53.590Z,2.90
2023-03-15T11:28:27.366Z,2.90
2023-03-15T11:30:57.322Z,2.90
2023-03-15T11:33:38.843Z,2.90
2023-03-15T11:36:12.449Z,2.90
2023-03-15T11:38:44.601Z,3.00
2023-03-15T11:41:27.890Z,3.00
2023-03-15T11:44:13.142Z,3.10
2023-03-15T11:46:49.476Z,3.20
2023-03-15T11:49:23.798Z,3.30
2023-03-15T11:51:50.928Z,3.30
2023-03-15T11:54:19.176Z,3.40
2023-03-15T11:56:48.804Z,3.40
2023-03-15T11:59:26.886Z,3.40
2023-03-15T12:02:10.864Z,3.50
2023-03-15T12:04:44.127Z,3.60
2023-03-15T12:07:19.939Z,3.60
2023-03-15T12:09:52.074Z,3.70
2023-03-15T12:12:24.984Z,3.80
2023-03-15T12:15:19.024Z,3.80
2023-03-15T12:18:00.064Z,3.90
2023-03-15T12:20:49.446Z,3.90
2023-03-15T12:23:19.343Z,4.00
2023-03-15T12:26:14.313Z,4.00
2023-03-15T12:29:03.793Z,4.00
2023-03-15T12:32:02.770Z,4.10
2023-03-15T12:34:51.399Z,4.30
2023-03-15T12:37:23.409Z,4.40
2023-03-15T12:40:09.415Z,4.50
2023-03-15T12:42:36.199Z,4.50
2023-03-15T12:45:18.364Z,4.70
2023-03-15T12:47:51.437Z,4.80
2023-03-15T12:50:45.802Z,4.90
2023-03-15T12:53:30.989Z,5.00
2023-03-15T12:56:19.327Z,5.00
2023-03-15T12:58:55.023Z,5.10
2023-03-15T13:01:25.641Z,5.10
2023-03-15T13:03:58.258Z,5.20
2023-03-15T13:06:55.285Z,5.30
2023-03-15T13:10:09.824Z,5.30
2023-03-15T13:12:44.797Z,5.30
2023-03-15T13:15:24.889Z,5.30
2023-03-15T13:18:02.010Z,5.20
2023-03-15T13:20:59.169Z,5.30
2023-03-15T13:23:30.862Z,5.40
2023-03-15T13:26:36.496Z,5.50
2023-03-15T13:29:17.427Z,5.60
2023-03-15T13:31:46.100Z,5.80
2023-03-15T13:34:19.227Z,6.10
2023-03-15T13:36:49.105Z,6.30
2023-03-15T13:39:23.931Z,6.50
2023-03-15T13:41:58.750Z,6.50
2023-03-15T13:44:27.081Z,6.60
2023-03-15T13:46:56.228Z,6.50
2023-03-15T13:49:23.832Z,6.50
2023-03-15T13:51:53.067Z,6.40
2023-03-15T13:54:32.051Z,6.30
2023-03-15T13:56:58.905Z,6.00
2023-03-15T13:59:35.536Z,5.70
2023-03-15T14:02:04.636Z,5.30
2023-03-15T14:04:37.806Z,5.10
2023-03-15T14:07:33.877Z,4.90
2023-03-15T14:10:26.541Z,4.70
2023-03-15T14:12:54.466Z,4.60
2023-03-15T14:15:26.089Z,4.60
2023-03-15T14:18:13.154Z,4.60
2023-03-15T14:21:20.441Z,4.50
2023-03-15T14:23:49.225Z,4.20
2023-03-15T14:26:30.126Z,3.90
2023-03-15T14:29:04.979Z,3.80
2023-03-15T14:31:39.669Z,3.60
2023-03-15T14:34:33.396Z,3.50
2023-03-15T14:37:04.314Z,3.50
2023-03-15T14:39:37.132Z,3.60
2023-03-15T14:42:04.209Z,3.90
2023-03-15T14:44:30.998Z,4.20
2023-03-15T14:46:59.044Z,4.50
2023-03-15T14:49:27.967Z,4.80
2023-03-15T14:52:04.204Z,5.10
2023-03-15T14:54:32.537Z,5.50
2023-03-15T14:56:59.850Z,5.90
2023-03-15T14:59:27.040Z,6.30
2023-03-15T15:01:57.444Z,6.60
2023-03-15T15:04:29.455Z,6.90
2023-03-15T15:06:56.257Z,7.00
2023-03-15T15:09:25.522Z,7.10
2023-03-15T15:11:52.928Z,7.10
2023-03-15T15:14:21.999Z,7.00
2023-03-15T15:16:49.410Z,6.90
2023-03-15T15:19:16.378Z,6.60
2023-03-15T15:21:44.049Z,6.30
2023-03-15T15:24:17.091Z,6.10
2023-03-15T15:26:44.691Z,5.80
2023-03-15T15:29:14.206Z,5.50
2023-03-15T15:31:41.788Z,5.40
2023-03-15T15:34:10.025Z,5.20
2023-03-15T15:36:42.802Z,5.10
2023-03-15T15:39:22.692Z,4.90
2023-03-15T15:41:50.323Z,4.80
2023-03-15T15:44:20.582Z,4.70
2023-03-15T15:46:47.454Z,4.60
2023-03-15T15:49:14.637Z,4.50
2023-03-15T15:51:45.837Z,4.50
2023-03-15T15:54:30.054Z,4.40
2023-03-15T15:56:59.168Z,4.30
2023-03-15T15:59:27.101Z,4.30
2023-03-15T16:02:01.104Z,4.30
2023-03-15T16:04:28.800Z,4.30
2023-03-15T16:06:58.689Z,4.30
2023-03-15T16:09:27.921Z,4.30
2023-03-15T16:11:55.339Z,4.20
2023-03-15T16:14:22.281Z,4.20
2023-03-15T16:16:49.242Z,4.20
2023-03-15T16:19:16.130Z,4.20
2023-03-15T16:21:47.745Z,4.20
2023-03-15T16:24:17.100Z,4.30
2023-03-15T16:26:45.489Z,4.40
2023-03-15T16:29:18.296Z,4.60
2023-03-15T16:31:45.689Z,4.80
2023-03-15T16:34:13.912Z,4.90
2023-03-15T16:36:43.539Z,5.00
2023-03-15T16:39:14.946Z,5.30
2023-03-15T16:41:42.188Z,5.30
2023-03-15T16:44:17.281Z,5.50
2023-03-15T16:46:44.419Z,5.50
2023-03-15T16:49:12.057Z,5.50
2023-03-15T16:51:44.947Z,5.40
2023-03-15T16:54:19.896Z,5.30
2023-03-15T16:56:54.886Z,5.20
2023-03-15T16:59:21.683Z,5.00
2023-03-15T17:01:51.363Z,5.00
2023-03-15T17:04:18.378Z,5.00
2023-03-15T17:06:46.201Z,5.00
2023-03-15T17:09:17.660Z,5.00
2023-03-15T17:11:46.672Z,4.90
2023-03-15T17:14:35.222Z,4.80
2023-03-15T17:17:02.116Z,4.70
2023-03-15T17:19:29.039Z,4.60
2023-03-15T17:21:55.850Z,4.50
2023-03-15T17:24:22.905Z,4.40
2023-03-15T17:26:49.868Z,4.30
2023-03-15T17:29:16.731Z,4.30
2023-03-15T17:31:44.562Z,4.20
2023-03-15T17:34:11.464Z,4.10
2023-03-15T17:36:39.062Z,4.00
2023-03-15T17:39:07.471Z,3.90
2023-03-15T17:41:37.193Z,3.80
2023-03-15T17:44:04.960Z,3.80
2023-03-15T17:46:33.103Z,3.70
2023-03-15T17:49:01.155Z,3.60
2023-03-15T17:51:34.283Z,3.60
2023-03-15T17:54:02.220Z,3.50
2023-03-15T17:56:30.172Z,3.50
2023-03-15T17:58:57.355Z,3.40
2023-03-15T18:01:27.628Z,3.40
2023-03-15T18:03:55.836Z,3.30
2023-03-15T18:06:23.421Z,3.30
2023-03-15T18:08:50.890Z,3.20
2023-03-15T18:11:22.230Z,3.20
2023-03-15T18:13:49.328Z,3.10
2023-03-15T18:16:16.131Z,3.10
2023-03-15T18:18:43.005Z,3.10
2023-03-15T18:21:21.961Z,3.00
2023-03-15T18:23:50.158Z,2.90
2023-03-15T18:26:17.806Z,2.90
2023-03-15T18:28:44.997Z,2.90
2023-03-15T18:31:16.339Z,2.80
2023-03-15T18:33:43.936Z,2.80
2023-03-15T18:36:11.703Z,2.70
2023-03-15T18:38:39.253Z,2.60
2023-03-15T18:41:20.674Z,2.60
2023-03-15T18:43:51.897Z,2.50
2023-03-15T18:46:27.112Z,2.50
2023-03-15T18:48:54.303Z,2.50
2023-03-15T18:51:25.188Z,2.40
2023-03-15T18:53:52.217Z,2.40
2023-03-15T18:56:28.404Z,2.40
2023-03-15T18:58:55.432Z,2.40
2023-03-15T19:01:24.458Z,2.30
2023-03-15T19:03:52.640Z,2.30
2023-03-15T19:06:20.703Z,2.30
2023-03-15T19:08:53.184Z,2.30
2023-03-15T19:11:23.994Z,2.20
2023-03-15T19:13:51.285Z,2.30
2023-03-15T19:16:19.532Z,2.20
2023-03-15T19:18:46.743Z,2.20
2023-03-15T19:21:14.000Z,2.20
2023-03-15T19:23:41.104Z,2.20
2023-03-15T19:26:08.397Z,2.20
2023-03-15T19:28:35.351Z,2.10
2023-03-15T19:31:03.216Z,2.00
2023-03-15T19:33:30.252Z,2.00
2023-03-15T19:35:57.161Z,2.00
2023-03-15T19:38:24.280Z,1.90
2023-03-15T19:40:55.164Z,1.90
2023-03-15T19:43:26.197Z,1.90
2023-03-15T19:45:53.126Z,1.90
2023-03-15T19:48:19.963Z,1.80
2023-03-15T19:50:47.816Z,1.80
2023-03-15T19:53:14.574Z,1.80
2023-03-15T19:55:41.413Z,1.80
2023-03-15T19:58:08.311Z,1.80
2023-03-15T20:00:35.262Z,1.70
2023-03-15T20:03:02.154Z,1.70
2023-03-15T20:05:29.051Z,1.70
2023-03-15T20:07:55.896Z,1.60
2023-03-15T20:10:23.339Z,1.60
2023-03-15T20:12:50.530Z,1.60
2023-03-15T20:15:19.273Z,1.50
2023-03-15T20:17:46.174Z,1.50
2023-03-15T20:20:14.697Z,1.40
2023-03-15T20:22:44.269Z,1.40
2023-03-15T20:25:13.789Z,1.40
2023-03-15T20:27:41.005Z,1.40
2023-03-15T20:30:09.803Z,1.40
2023-03-15T20:32:36.671Z,1.40
2023-03-15T20:35:08.784Z,1.40
2023-03-15T20:37:37.644Z,1.30
2023-03-15T20:40:08.925Z,1.30
2023-03-15T20:42:36.014Z,1.30
2023-03-15T20:45:04.369Z,1.30
2023-03-15T20:47:31.332Z,1.20
2023-03-15T20:49:58.315Z,1.20
2023-03-15T20:52:25.501Z,1.20
2023-03-15T20:54:52.252Z,1.20
2023-03-15T20:57:19.169Z,1.10
2023-03-15T20:59:46.607Z,1.10
2023-03-15T21:02:13.511Z,1.10
2023-03-15T21:04:40.429Z,1.10
2023-03-15T21:07:08.313Z,1.10
2023-03-15T21:09:35.404Z,1.00
2023-03-15T21:12:02.694Z,1.00
2023-03-15T21:14:29.608Z,1.00
2023-03-15T21:16:56.622Z,1.00
2023-03-15T21:19:24.740Z,0.90
2023-03-15T21:21:51.606Z,0.90
2023-03-15T21:24:18.445Z,0.90
2023-03-15T21:26:48.504Z,0.90
2023-03-15T21:29:15.384Z,0.90
2023-03-15T21:31:42.266Z,0.90
2023-03-15T21:34:09.131Z,0.90
2023-03-15T21:36:36.036Z,0.90
2023-03-15T21:39:02.819Z,0.90
2023-03-15T21:41:31.623Z,0.80
2023-03-15T21:43:58.467Z,0.80
2023-03-15T21:46:26.344Z,0.70
2023-03-15T21:48:53.190Z,0.60
2023-03-15T21:51:22.210Z,0.60
2023-03-15T21:53:50.185Z,0.60
2023-03-15T21:56:17.118Z,0.60
2023-03-15T21:58:43.966Z,0.60
2023-03-15T22:01:13.772Z,0.50
2023-03-15T22:03:42.371Z,0.50
2023-03-15T22:06:09.278Z,0.50
2023-03-15T22:08:36.114Z,0.40
2023-03-15T22:11:04.567Z,0.30
2023-03-15T22:13:31.627Z,0.40
2023-03-15T22:15:59.773Z,0.40
2023-03-15T22:18:28.608Z,0.30
2023-03-15T22:20:56.570Z,0.30
2023-03-15T22:23:23.457Z,0.30
2023-03-15T22:25:52.824Z,0.30
2023-03-15T22:28:20.921Z,0.20
2023-03-15T22:30:49.445Z,0.20
2023-03-15T22:33:17.819Z,0.20
2023-03-15T22:35:44.941Z,0.20
2023-03-15T22:38:12.530Z,0.10
2023-03-15T22:40:40.601Z,0.10
2023-03-15T22:43:08.856Z,0.10
2023-03-15T22:45:35.901Z,0.10
2023-03-15T22:48:02.870Z,0.10
2023-03-15T22:50:29.691Z,0.10
2023-03-15T22:52:56.874Z,0.10
2023-03-15T22:55:24.708Z,0.00
2023-03-15T22:57:51.630Z,0.00
2023-03-15T23:00:21.728Z,0.00
2023-03-15T23:02:49.111Z,-0.10
2023-03-15T23:05:17.821Z,-0.10
2023-03-15T23:07:44.983Z,-0.10
2023-03-15T23:10:12.726Z,-0.10
2023-03-15T23:12:39.594Z,-0.10
2023-03-15T23:15:07.562Z,-0.10
2023-03-15T23:17:34.434Z,-0.20
2023-03-15T23:20:01.298Z,-0.20
2023-03-15T23:22:29.114Z,-0.10
2023-03-15T23:24:57.949Z,-0.10
2023-03-15T23:27:25.994Z,-0.10
2023-03-15T23:29:54.894Z,-0.20
2023-03-15T23:32:24.982Z,0.00
2023-03-15T23:34:53.883Z,0.00
2023-03-15T23:37:21.023Z,0.00
2023-03-15T23:39:47.802Z,0.10
2023-03-15T23:42:14.695Z,0.10
2023-03-15T23:44:41.572Z,0.10
2023-03-15T23:47:08.573Z,0.10
2023-03-15T23:49:35.699Z,0.10
2023-03-15T23:52:05.306Z,0.10
2023-03-15T23:54:39.284Z,0.10
2023-03-15T23:57:07.672Z,0.10
2023-03-15T23:59:39.047Z,0.10
